createdAt,value
2022-08-21T00:00:20.258Z,17.20
2022-08-21T00:02:59.773Z,17.10
2022-08-21T00:05:26.933Z,17.10
2022-08-21T00:07:53.815Z,17.10
2022-08-21T00:10:20.814Z,17.10
2022-08-21T00:12:48.236Z,17.10
2022-08-21T00:15:17.086Z,17.00
2022-08-21T00:17:43.926Z,17.00
2022-08-21T00:20:14.382Z,17.00
2022-08-21T00:22:41.265Z,17.00
2022-08-21T00:25:08.757Z,17.00
2022-08-21T00:27:35.761Z,17.00
2022-08-21T00:30:03.078Z,17.00
2022-08-21T00:32:29.951Z,17.00
2022-08-21T00:34:56.795Z,16.90
2022-08-21T00:37:23.762Z,16.90
2022-08-21T00:39:50.804Z,16.80
2022-08-21T00:42:17.973Z,16.80
2022-08-21T00:44:45.885Z,16.80
2022-08-21T00:47:12.780Z,16.70
2022-08-21T00:49:40.224Z,16.70
2022-08-21T00:52:08.729Z,16.60
2022-08-21T00:54:35.578Z,16.60
2022-08-21T00:57:06.570Z,16.60
2022-08-21T00:59:35.523Z,16.60
2022-08-21T01:02:02.682Z,16.60
2022-08-21T01:04:29.531Z,16.60
2022-08-21T01:06:56.393Z,16.60
2022-08-21T01:09:23.470Z,16.60
2022-08-21T01:11:50.329Z,16.50
2022-08-21T01:14:19.447Z,16.40
2022-08-21T01:16:47.732Z,16.40
2022-08-21T01:19:15.722Z,16.30
2022-08-21T01:21:43.962Z,16.30
2022-08-21T01:24:11.342Z,16.30
2022-08-21T01:26:38.233Z,16.20
2022-08-21T01:29:27.027Z,16.20
2022-08-21T01:31:53.925Z,16.20
2022-08-21T01:34:20.885Z,16.20
2022-08-21T01:36:47.962Z,16.20
2022-08-21T01:39:15.527Z,16.20
2022-08-21T01:41:42.490Z,16.10
2022-08-21T01:44:09.323Z,16.20
2022-08-21T01:46:36.218Z,16.10
2022-08-21T01:49:03.526Z,16.10
2022-08-21T01:51:30.382Z,16.10
2022-08-21T01:53:57.213Z,16.10
2022-08-21T01:56:24.022Z,16.10
2022-08-21T01:58:50.887Z,16.10
2022-08-21T02:01:17.876Z,16.00
2022-08-21T02:03:44.835Z,16.00
2022-08-21T02:06:14.851Z,15.90
2022-08-21T02:08:41.834Z,15.90
2022-08-21T02:11:08.753Z,15.80
2022-08-21T02:13:35.606Z,15.80
2022-08-21T02:16:02.634Z,15.80
2022-08-21T02:18:30.630Z,15.80
2022-08-21T02:20:57.485Z,15.70
2022-08-21T02:23:26.953Z,15.60
2022-08-21T02:25:55.927Z,15.70
2022-08-21T02:28:22.829Z,15.70
2022-08-21T02:30:49.756Z,15.70
2022-08-21T02:33:16.930Z,15.60
2022-08-21T02:35:44.741Z,15.60
2022-08-21T02:38:14.006Z,15.70
2022-08-21T02:40:43.933Z,15.60
2022-08-21T02:43:16.367Z,15.50
2022-08-21T02:45:43.526Z,15.50
2022-08-21T02:48:11.639Z,15.50
2022-08-21T02:50:43.542Z,15.60
2022-08-21T02:53:11.406Z,15.60
2022-08-21T02:55:38.759Z,15.50
2022-08-21T02:58:06.805Z,15.50
2022-08-21T03:00:34.538Z,15.60
2022-08-21T03:03:01.381Z,15.50
2022-08-21T03:05:29.176Z,15.60
2022-08-21T03:07:56.142Z,15.50
2022-08-21T03:10:23.134Z,15.50
2022-08-21T03:12:50.182Z,15.50
2022-08-21T03:15:18.286Z,15.40
2022-08-21T03:17:45.923Z,15.40
2022-08-21T03:20:20.885Z,15.40
2022-08-21T03:22:52.172Z,15.40
2022-08-21T03:25:20.186Z,15.40
2022-08-21T03:27:57.040Z,15.50
2022-08-21T03:30:26.161Z,15.40
2022-08-21T03:32:53.774Z,15.40
2022-08-21T03:35:22.634Z,15.50
2022-08-21T03:37:49.486Z,15.40
2022-08-21T03:40:17.942Z,15.40
2022-08-21T03:42:47.957Z,15.40
2022-08-21T03:45:16.118Z,15.40
2022-08-21T03:47:59.895Z,15.40
2022-08-21T03:50:29.607Z,15.40
2022-08-21T03:52:57.037Z,15.30
2022-08-21T03:55:25.094Z,15.30
2022-08-21T03:57:52.138Z,15.30
2022-08-21T04:00:20.007Z,15.40
2022-08-21T04:02:46.979Z,15.40
2022-08-21T04:05:14.538Z,15.50
2022-08-21T04:07:41.534Z,15.50
2022-08-21T04:10:08.885Z,15.60
2022-08-21T04:12:35.753Z,15.50
2022-08-21T04:15:03.068Z,15.60
2022-08-21T04:17:29.991Z,15.50
2022-08-21T04:19:57.486Z,15.60
2022-08-21T04:22:24.458Z,15.60
2022-08-21T04:24:51.296Z,15.60
2022-08-21T04:27:18.135Z,15.50
2022-08-21T04:29:44.982Z,15.40
2022-08-21T04:32:11.853Z,15.40
2022-08-21T04:34:38.766Z,15.40
2022-08-21T04:37:05.713Z,15.40
2022-08-21T04:39:32.533Z,15.30
2022-08-21T04:41:59.342Z,15.40
2022-08-21T04:44:26.293Z,15.40
2022-08-21T04:46:53.232Z,15.40
2022-08-21T04:49:20.050Z,15.40
2022-08-21T04:51:49.786Z,15.50
2022-08-21T04:54:21.482Z,15.50
2022-08-21T04:56:53.680Z,15.50
2022-08-21T04:59:23.649Z,15.50
2022-08-21T05:01:50.675Z,15.50
2022-08-21T05:04:19.129Z,15.60
2022-08-21T05:06:47.694Z,15.60
2022-08-21T05:09:15.859Z,15.60
2022-08-21T05:11:43.763Z,15.70
2022-08-21T05:14:12.531Z,15.70
2022-08-21T05:16:39.528Z,15.70
2022-08-21T05:19:07.098Z,15.80
2022-08-21T05:21:35.186Z,15.80
2022-08-21T05:24:02.113Z,15.90
2022-08-21T05:26:28.964Z,16.00
2022-08-21T05:28:55.847Z,16.00
2022-08-21T05:31:24.221Z,16.00
2022-08-21T05:33:52.127Z,16.10
2022-08-21T05:36:19.785Z,16.20
2022-08-21T05:38:46.897Z,16.20
2022-08-21T05:41:13.968Z,16.30
2022-08-21T05:43:40.846Z,16.30
2022-08-21T05:46:07.953Z,16.40
2022-08-21T05:48:34.940Z,16.50
2022-08-21T05:51:09.781Z,16.60
2022-08-21T05:53:36.710Z,16.70
2022-08-21T05:56:04.901Z,16.70
2022-08-21T05:58:33.733Z,16.80
2022-08-21T06:01:00.903Z,16.80
2022-08-21T06:03:33.606Z,16.80
2022-08-21T06:06:00.577Z,16.90
2022-08-21T06:08:27.883Z,16.90
2022-08-21T06:10:55.859Z,16.90
2022-08-21T06:13:23.285Z,17.00
2022-08-21T06:15:50.511Z,17.00
2022-08-21T06:18:17.539Z,17.10
2022-08-21T06:20:44.467Z,17.20
2022-08-21T06:23:11.294Z,17.20
2022-08-21T06:25:38.153Z,17.30
2022-08-21T06:28:07.011Z,17.40
2022-08-21T06:30:33.951Z,17.50
2022-08-21T06:33:01.141Z,17.60
2022-08-21T06:35:30.031Z,17.60
2022-08-21T06:37:58.172Z,17.70
2022-08-21T06:40:25.530Z,17.90
2022-08-21T06:42:52.811Z,18.00
2022-08-21T06:45:19.698Z,18.10
2022-08-21T06:47:46.514Z,18.20
2022-08-21T06:50:13.669Z,18.30
2022-08-21T06:52:41.198Z,18.40
2022-08-21T06:55:09.182Z,18.50
2022-08-21T06:57:36.031Z,18.70
2022-08-21T07:00:05.761Z,18.80
2022-08-21T07:02:34.536Z,18.90
2022-08-21T07:05:01.550Z,18.90
2022-08-21T07:07:28.375Z,19.10
2022-08-21T07:09:55.209Z,19.00
2022-08-21T07:12:22.123Z,19.10
2022-08-21T07:14:49.691Z,19.20
2022-08-21T07:17:16.572Z,19.20
2022-08-21T07:19:43.466Z,19.20
2022-08-21T07:22:10.346Z,19.30
2022-08-21T07:24:37.187Z,19.30
2022-08-21T07:27:08.218Z,19.30
2022-08-21T07:29:36.754Z,19.30
2022-08-21T07:32:03.854Z,19.40
2022-08-21T07:34:31.095Z,19.50
2022-08-21T07:36:58.990Z,19.60
2022-08-21T07:39:25.957Z,19.80
2022-08-21T07:41:52.792Z,19.80
2022-08-21T07:44:19.671Z,19.90
2022-08-21T07:46:46.510Z,19.90
2022-08-21T07:49:13.559Z,20.00
2022-08-21T07:51:40.427Z,20.00
2022-08-21T07:54:07.428Z,20.10
2022-08-21T07:56:34.296Z,20.10
2022-08-21T07:59:01.224Z,20.10
2022-08-21T08:01:28.132Z,20.10
2022-08-21T08:03:56.012Z,20.20
2022-08-21T08:06:24.110Z,20.10
2022-08-21T08:08:51.021Z,20.10
2022-08-21T08:11:17.856Z,20.20
2022-08-21T08:13:46.560Z,20.20
2022-08-21T08:16:13.537Z,20.30
2022-08-21T08:18:40.382Z,20.30
2022-08-21T08:21:07.343Z,20.40
2022-08-21T08:23:34.339Z,20.60
2022-08-21T08:26:03.377Z,20.80
2022-08-21T08:28:31.442Z,20.90
2022-08-21T08:30:58.531Z,21.00
2022-08-21T08:33:25.381Z,20.90
2022-08-21T08:35:52.603Z,20.90
2022-08-21T08:38:21.439Z,20.90
2022-08-21T08:41:16.876Z,21.00
2022-08-21T08:43:45.985Z,20.90
2022-08-21T08:46:16.391Z,20.90
2022-08-21T08:48:58.431Z,20.90
2022-08-21T08:51:53.176Z,20.80
2022-08-21T08:54:32.609Z,20.80
2022-08-21T08:57:03.346Z,21.10
2022-08-21T08:59:43.796Z,21.40
2022-08-21T09:02:12.739Z,21.40
2022-08-21T09:04:40.083Z,21.50
2022-08-21T09:07:06.962Z,21.60
2022-08-21T09:09:58.494Z,21.80
2022-08-21T09:12:39.055Z,21.70
2022-08-21T09:15:37.067Z,21.70
2022-08-21T09:18:13.331Z,21.60
2022-08-21T09:20:56.616Z,21.40
2022-08-21T09:23:57.390Z,21.20
2022-08-21T09:26:26.114Z,21.10
2022-08-21T09:28:53.974Z,21.00
2022-08-21T09:31:29.811Z,21.00
2022-08-21T09:34:05.365Z,21.10
2022-08-21T09:36:52.489Z,21.50
2022-08-21T09:39:30.801Z,22.10
2022-08-21T09:42:02.137Z,22.40
2022-08-21T09:44:31.062Z,22.70
2022-08-21T09:46:57.957Z,22.80
2022-08-21T09:49:31.863Z,22.40
2022-08-21T09:51:59.654Z,22.20
2022-08-21T09:54:37.972Z,21.90
2022-08-21T09:57:29.240Z,21.80
2022-08-21T09:59:56.287Z,21.90
2022-08-21T10:02:30.518Z,21.70
2022-08-21T10:05:02.086Z,21.70
2022-08-21T10:07:30.769Z,21.90
2022-08-21T10:10:31.167Z,22.20
2022-08-21T10:13:13.014Z,22.40
2022-08-21T10:15:55.913Z,22.70
2022-08-21T10:18:37.726Z,22.90
2022-08-21T10:21:31.279Z,23.20
2022-08-21T10:24:11.221Z,23.40
2022-08-21T10:27:21.914Z,23.40
2022-08-21T10:29:53.302Z,23.50
2022-08-21T10:32:32.645Z,23.50
2022-08-21T10:35:33.226Z,23.50
2022-08-21T10:38:50.827Z,23.20
2022-08-21T10:41:37.694Z,22.90
2022-08-21T10:44:40.724Z,22.80
2022-08-21T10:47:09.921Z,22.80
2022-08-21T10:49:51.498Z,22.90
2022-08-21T10:52:36.801Z,23.00
2022-08-21T10:55:19.026Z,23.10
2022-08-21T10:57:57.908Z,23.10
2022-08-21T11:00:35.203Z,23.20
2022-08-21T11:03:06.382Z,23.40
2022-08-21T11:05:50.163Z,23.50
2022-08-21T11:08:27.762Z,23.70
2022-08-21T11:11:09.719Z,23.70
2022-08-21T11:13:58.557Z,23.90
2022-08-21T11:16:37.598Z,23.80
2022-08-21T11:19:23.608Z,23.70
2022-08-21T11:22:16.985Z,23.70
2022-08-21T11:24:59.123Z,23.90
2022-08-21T11:27:54.185Z,23.90
2022-08-21T11:30:21.223Z,23.80
2022-08-21T11:33:23.555Z,24.00
2022-08-21T11:36:00.290Z,24.00
2022-08-21T11:38:39.837Z,24.00
2022-08-21T11:41:27.789Z,23.90
2022-08-21T11:44:03.643Z,24.20
2022-08-21T11:46:34.101Z,24.20
2022-08-21T11:49:12.847Z,24.10
2022-08-21T11:51:51.558Z,24.10
2022-08-21T11:54:24.507Z,24.00
2022-08-21T11:57:21.797Z,24.00
2022-08-21T12:00:17.907Z,24.30
2022-08-21T12:02:48.358Z,24.50
2022-08-21T12:05:32.901Z,24.50
2022-08-21T12:08:28.634Z,24.70
2022-08-21T12:11:07.086Z,24.60
2022-08-21T12:13:40.215Z,24.70
2022-08-21T12:16:16.613Z,24.70
2022-08-21T12:18:43.716Z,24.40
2022-08-21T12:21:27.658Z,24.20
2022-08-21T12:24:06.610Z,24.00
2022-08-21T12:26:47.704Z,23.80
2022-08-21T12:29:23.228Z,23.80
2022-08-21T12:32:15.905Z,23.70
2022-08-21T12:35:01.926Z,23.90
2022-08-21T12:37:42.177Z,24.00
2022-08-21T12:40:27.535Z,24.30
2022-08-21T12:42:58.887Z,24.50
2022-08-21T12:45:33.369Z,24.70
2022-08-21T12:48:03.373Z,24.90
2022-08-21T12:50:42.621Z,25.20
2022-08-21T12:53:21.079Z,25.30
2022-08-21T12:55:48.019Z,25.00
2022-08-21T12:58:19.868Z,24.70
2022-08-21T13:01:14.126Z,24.40
2022-08-21T13:03:41.511Z,24.00
2022-08-21T13:06:10.664Z,23.70
2022-08-21T13:08:40.954Z,23.40
2022-08-21T13:11:13.459Z,23.40
2022-08-21T13:13:47.005Z,23.50
2022-08-21T13:16:24.114Z,23.70
2022-08-21T13:18:59.873Z,24.10
2022-08-21T13:21:31.849Z,24.40
2022-08-21T13:24:42.343Z,24.50
2022-08-21T13:27:24.287Z,24.30
2022-08-21T13:30:19.969Z,24.30
2022-08-21T13:32:49.622Z,24.20
2022-08-21T13:35:31.663Z,24.40
2022-08-21T13:37:58.498Z,24.60
2022-08-21T13:40:34.094Z,24.90
2022-08-21T13:43:01.172Z,25.40
2022-08-21T13:45:32.260Z,25.50
2022-08-21T13:47:59.081Z,25.30
2022-08-21T13:50:31.074Z,24.90
2022-08-21T13:53:02.117Z,24.50
2022-08-21T13:55:40.491Z,24.30
2022-08-21T13:58:07.581Z,24.20
2022-08-21T14:00:36.634Z,23.90
2022-08-21T14:03:10.008Z,23.70
2022-08-21T14:05:44.118Z,23.50
2022-08-21T14:08:15.827Z,23.20
2022-08-21T14:10:44.895Z,23.00
2022-08-21T14:13:38.180Z,23.00
2022-08-21T14:16:15.542Z,23.00
2022-08-21T14:18:51.106Z,23.00
2022-08-21T14:21:27.107Z,23.10
2022-08-21T14:24:03.150Z,23.40
2022-08-21T14:26:30.053Z,23.50
2022-08-21T14:28:59.910Z,23.70
2022-08-21T14:31:30.535Z,23.60
2022-08-21T14:33:57.662Z,23.60
2022-08-21T14:36:24.474Z,23.40
2022-08-21T14:38:51.325Z,23.10
2022-08-21T14:41:22.581Z,23.00
2022-08-21T14:43:59.819Z,23.10
2022-08-21T14:46:39.160Z,23.20
2022-08-21T14:49:30.073Z,23.30
2022-08-21T14:51:58.704Z,23.30
2022-08-21T14:54:31.661Z,23.30
2022-08-21T14:57:01.647Z,23.30
2022-08-21T14:59:28.507Z,23.30
2022-08-21T15:01:57.212Z,23.40
2022-08-21T15:04:24.217Z,23.50
2022-08-21T15:06:51.098Z,23.60
2022-08-21T15:09:17.905Z,23.80
2022-08-21T15:11:44.793Z,23.90
2022-08-21T15:14:13.958Z,24.00
2022-08-21T15:16:40.779Z,24.00
2022-08-21T15:19:07.670Z,24.00
2022-08-21T15:21:34.518Z,23.90
2022-08-21T15:24:01.593Z,24.00
2022-08-21T15:26:28.506Z,23.80
2022-08-21T15:28:55.310Z,23.60
2022-08-21T15:31:22.198Z,23.30
2022-08-21T15:33:49.103Z,23.00
2022-08-21T15:36:17.278Z,22.90
2022-08-21T15:38:45.709Z,22.90
2022-08-21T15:41:12.706Z,23.00
2022-08-21T15:43:46.883Z,23.20
2022-08-21T15:46:14.977Z,23.30
2022-08-21T15:48:41.811Z,23.50
2022-08-21T15:51:09.538Z,23.50
2022-08-21T15:53:39.507Z,23.60
2022-08-21T15:56:07.366Z,23.60
2022-08-21T15:58:34.374Z,23.60
2022-08-21T16:01:01.418Z,23.90
2022-08-21T16:03:28.372Z,23.90
2022-08-21T16:05:57.742Z,23.90
2022-08-21T16:08:25.331Z,23.70
2022-08-21T16:10:53.201Z,23.60
2022-08-21T16:13:24.947Z,23.50
2022-08-21T16:15:51.913Z,23.50
2022-08-21T16:18:19.290Z,23.40
2022-08-21T16:20:46.292Z,23.30
2022-08-21T16:23:13.211Z,23.10
2022-08-21T16:25:40.518Z,23.00
2022-08-21T16:28:08.883Z,22.80
2022-08-21T16:30:38.399Z,22.70
2022-08-21T16:33:06.193Z,22.60
2022-08-21T16:35:33.466Z,22.60
2022-08-21T16:38:00.458Z,22.70
2022-08-21T16:40:28.569Z,22.60
2022-08-21T16:42:56.297Z,22.60
2022-08-21T16:45:23.276Z,22.60
2022-08-21T16:47:51.320Z,22.60
2022-08-21T16:50:22.269Z,22.60
2022-08-21T16:52:49.110Z,22.60
2022-08-21T16:55:16.214Z,22.60
2022-08-21T16:57:43.140Z,22.60
2022-08-21T17:00:14.361Z,22.60
2022-08-21T17:02:47.798Z,22.50
2022-08-21T17:05:14.893Z,22.40
2022-08-21T17:07:42.278Z,22.30
2022-08-21T17:10:09.897Z,22.10
2022-08-21T17:12:36.783Z,22.10
2022-08-21T17:15:09.419Z,22.00
2022-08-21T17:17:36.294Z,22.00
2022-08-21T17:20:03.974Z,22.00
2022-08-21T17:22:30.790Z,22.10
2022-08-21T17:24:57.715Z,22.10
2022-08-21T17:27:26.826Z,22.10
2022-08-21T17:29:54.685Z,22.10
2022-08-21T17:32:21.824Z,22.10
2022-08-21T17:34:48.639Z,22.00
2022-08-21T17:37:15.661Z,22.00
2022-08-21T17:39:42.654Z,21.90
2022-08-21T17:42:11.250Z,21.90
2022-08-21T17:44:39.612Z,21.90
2022-08-21T17:47:06.958Z,21.90
2022-08-21T17:49:33.802Z,21.90
2022-08-21T17:52:00.602Z,21.80
2022-08-21T17:54:28.246Z,21.80
2022-08-21T17:56:56.263Z,21.80
2022-08-21T17:59:23.638Z,21.70
2022-08-21T18:01:50.811Z,21.80
2022-08-21T18:04:17.677Z,21.70
2022-08-21T18:06:44.773Z,21.70
2022-08-21T18:09:12.819Z,21.70
2022-08-21T18:11:39.930Z,21.70
2022-08-21T18:14:07.911Z,21.70
2022-08-21T18:16:35.338Z,21.70
2022-08-21T18:19:02.424Z,21.70
2022-08-21T18:21:30.910Z,21.60
2022-08-21T18:23:57.834Z,21.60
2022-08-21T18:26:29.819Z,21.60
2022-08-21T18:28:59.832Z,21.70
2022-08-21T18:31:30.864Z,21.70
2022-08-21T18:33:58.892Z,21.70
2022-08-21T18:36:27.065Z,21.70
2022-08-21T18:38:54.717Z,21.70
2022-08-21T18:41:22.017Z,21.60
2022-08-21T18:43:48.914Z,21.70
2022-08-21T18:46:16.269Z,21.60
2022-08-21T18:48:43.533Z,21.60
2022-08-21T18:51:12.350Z,21.60
2022-08-21T18:53:39.233Z,21.60
2022-08-21T18:56:06.718Z,21.60
2022-08-21T18:58:33.874Z,21.60
2022-08-21T19:01:01.002Z,21.60
2022-08-21T19:03:27.944Z,21.60
2022-08-21T19:05:54.943Z,21.60
2022-08-21T19:08:23.265Z,21.50
2022-08-21T19:10:51.273Z,21.50
2022-08-21T19:13:19.601Z,21.50
2022-08-21T19:15:49.903Z,21.50
2022-08-21T19:18:19.391Z,21.50
2022-08-21T19:20:48.176Z,21.50
2022-08-21T19:23:15.953Z,21.40
2022-08-21T19:25:44.766Z,21.40
2022-08-21T19:28:13.651Z,21.40
2022-08-21T19:30:42.197Z,21.40
2022-08-21T19:36:02.681Z,21.40
2022-08-21T19:38:29.607Z,21.40
2022-08-21T19:40:56.576Z,21.30
2022-08-21T19:43:23.581Z,21.30
2022-08-21T19:45:53.164Z,21.20
2022-08-21T19:48:20.118Z,21.20
2022-08-21T19:50:47.032Z,21.10
2022-08-21T19:53:14.037Z,21.10
2022-08-21T19:55:44.954Z,21.10
2022-08-21T19:58:36.977Z,21.00
2022-08-21T20:01:05.686Z,21.00
2022-08-21T20:03:39.368Z,20.90
2022-08-21T20:06:10.174Z,21.00
2022-08-21T20:08:37.153Z,20.90
2022-08-21T20:11:04.512Z,20.90
2022-08-21T20:13:33.849Z,20.90
2022-08-21T20:16:02.252Z,20.80
2022-08-21T20:18:29.502Z,20.80
2022-08-21T20:20:56.538Z,20.70
2022-08-21T20:23:30.253Z,20.70
2022-08-21T20:26:00.722Z,20.70
2022-08-21T20:28:28.602Z,20.60
2022-08-21T20:30:55.918Z,20.60
2022-08-21T20:33:23.691Z,20.60
2022-08-21T20:35:52.240Z,20.50
2022-08-21T20:38:19.340Z,20.50
2022-08-21T20:40:50.201Z,20.40
2022-08-21T20:43:17.226Z,20.40
2022-08-21T20:45:44.083Z,20.40
2022-08-21T20:48:14.828Z,20.40
2022-08-21T20:50:49.249Z,20.40
2022-08-21T20:53:51.181Z,20.40
2022-08-21T20:56:30.168Z,20.30
2022-08-21T20:59:01.999Z,20.30
2022-08-21T21:01:30.126Z,20.20
2022-08-21T21:04:20.128Z,20.20
2022-08-21T21:06:49.812Z,20.20
2022-08-21T21:09:28.442Z,20.20
2022-08-21T21:11:59.415Z,20.20
2022-08-21T21:14:47.263Z,20.10
2022-08-21T21:17:18.291Z,20.10
2022-08-21T21:20:08.003Z,20.10
2022-08-21T21:22:49.543Z,20.10
2022-08-21T21:25:19.432Z,20.10
2022-08-21T21:27:50.984Z,20.00
2022-08-21T21:33:07.591Z,20.00
2022-08-21T21:35:49.019Z,20.00
2022-08-21T21:38:22.850Z,20.00
2022-08-21T21:41:07.888Z,20.00
2022-08-21T21:43:56.417Z,20.00
2022-08-21T21:46:48.447Z,20.00
2022-08-21T21:49:44.638Z,19.90
2022-08-21T21:52:32.174Z,19.90
2022-08-21T21:55:23.912Z,19.90
2022-08-21T21:57:58.672Z,19.80
2022-08-21T22:00:27.475Z,19.80
2022-08-21T22:02:54.966Z,19.80
2022-08-21T22:05:39.982Z,19.80
2022-08-21T22:08:12.873Z,19.80
2022-08-21T22:11:23.970Z,19.80
2022-08-21T22:14:13.833Z,19.70
2022-08-21T22:16:41.198Z,19.70
2022-08-21T22:19:25.177Z,19.70
2022-08-21T22:22:21.887Z,19.70
2022-08-21T22:24:50.884Z,19.70
2022-08-21T22:27:23.814Z,19.70
2022-08-21T22:29:56.023Z,19.70
2022-08-21T22:32:45.869Z,19.70
2022-08-21T22:35:23.879Z,19.70
2022-08-21T22:37:52.918Z,19.70
2022-08-21T22:40:26.167Z,19.60
2022-08-21T22:43:16.121Z,19.60
2022-08-21T22:46:06.047Z,19.60
2022-08-21T22:48:37.188Z,19.60
2022-08-21T22:51:07.791Z,19.60
2022-08-21T22:53:36.650Z,19.60
2022-08-21T22:56:04.898Z,19.60
2022-08-21T23:01:27.468Z,19.50
2022-08-21T23:03:58.466Z,19.40
2022-08-21T23:06:31.545Z,19.40
2022-08-21T23:08:58.501Z,19.40
2022-08-21T23:11:37.285Z,19.30
2022-08-21T23:14:04.170Z,19.30
2022-08-21T23:16:50.960Z,19.30
2022-08-21T23:19:20.881Z,19.20
2022-08-21T23:22:09.506Z,19.20
2022-08-21T23:25:00.514Z,19.10
2022-08-21T23:27:32.030Z,19.10
2022-08-21T23:30:14.842Z,19.10
2022-08-21T23:32:52.306Z,19.10
2022-08-21T23:36:00.439Z,19.10
2022-08-21T23:38:34.394Z,19.10
2022-08-21T23:41:34.093Z,19.00
2022-08-21T23:47:11.451Z,18.90
2022-08-21T23:49:54.037Z,18.90
2022-08-21T23:52:51.668Z,18.90
2022-08-21T23:58:36.362Z,18.90
